Time;durP1;ratioP1;P1;durP2;ratioP2;P2;SDS_P1;SDS_P2;PMS_P1;PMS_P2;Temp;Humidity;BMP_temperature;BMP_pressure;BME280_temperature;BME280_humidity;BME280_pressure;Samples;Min_cycle;Max_cycle;Signal;HPM_P1;HPM_P2
2022/06/11 00:01:13;;;;;;;13.20;6.55;;;;;;;;;;6154522;23;20025;-82
2022/06/11 00:03:40;;;;;;;13.02;6.25;;;;;;;;;;6153889;23;20022;-82
2022/06/11 00:06:08;;;;;;;10.68;5.90;;;;;;;;;;6154001;23;20014;-82
2022/06/11 00:08:36;;;;;;;21.17;6.88;;;;;;;;;;6152006;23;20062;-82
2022/06/11 00:11:03;;;;;;;14.77;7.03;;;;;;;;;;6152903;23;20436;-82
2022/06/11 00:13:31;;;;;;;12.63;6.47;;;;;;;;;;6152790;23;20977;-84
2022/06/11 00:16:01;;;;;;;10.90;6.10;;;;;;;;;;6153917;23;20021;-82
2022/06/11 00:18:34;;;;;;;13.15;6.40;;;;;;;;;;6155810;23;20025;-82
2022/06/11 00:21:01;;;;;;;17.67;7.22;;;;;;;;;;6154506;23;20010;-82
2022/06/11 00:23:29;;;;;;;18.38;7.55;;;;;;;;;;6153510;23;20020;-83
2022/06/11 00:25:56;;;;;;;16.15;7.22;;;;;;;;;;6152189;23;20017;-84
2022/06/11 00:28:23;;;;;;;12.23;6.50;;;;;;;;;;6154873;23;20014;-82
2022/06/11 00:30:51;;;;;;;18.08;7.13;;;;;;;;;;6153102;23;20021;-82
2022/06/11 00:33:19;;;;;;;12.85;6.80;;;;;;;;;;6179686;23;20010;-82
2022/06/11 00:35:51;;;;;;;8.93;6.38;;;;;;;;;;6178359;23;20082;-83
2022/06/11 00:38:19;;;;;;;15.35;8.00;;;;;;;;;;6151848;23;20038;-82
2022/06/11 00:40:47;;;;;;;16.48;7.25;;;;;;;;;;6150211;23;20028;-82
2022/06/11 00:43:16;;;;;;;16.33;9.00;;;;;;;;;;6150828;23;20562;-82
2022/06/11 00:45:46;;;;;;;16.50;8.07;;;;;;;;;;6151083;23;20073;-82
2022/06/11 00:48:20;;;;;;;13.55;7.72;;;;;;;;;;6151593;23;20062;-82
2022/06/11 00:50:47;;;;;;;;;;;;;;;;;;6149889;23;20039;-82
2022/06/11 00:53:33;;;;;;;17.77;8.38;;;;;;;;;;6201293;23;43897;-82
2022/06/11 00:56:01;;;;;;;10.70;7.03;;;;;;;;;;6150125;23;20018;-82
2022/06/11 00:58:31;;;;;;;16.63;7.88;;;;;;;;;;6151392;23;20010;-82
2022/06/11 01:01:00;;;;;;;14.57;6.65;;;;;;;;;;6149839;23;20039;-82
2022/06/11 01:03:30;;;;;;;13.52;6.45;;;;;;;;;;6149147;23;20029;-82
2022/06/11 01:06:00;;;;;;;13.13;6.45;;;;;;;;;;6151270;23;20028;-84
2022/06/11 01:08:32;;;;;;;12.27;6.50;;;;;;;;;;6152099;23;20030;-82
2022/06/11 01:11:09;;;;;;;9.93;6.63;;;;;;;;;;6150361;23;20013;-83
2022/06/11 01:13:39;;;;;;;14.80;6.90;;;;;;;;;;6149870;23;20892;-84
2022/06/11 01:16:11;;;;;;;11.57;6.30;;;;;;;;;;6148549;23;20803;-83
2022/06/11 01:18:44;;;;;;;12.63;7.20;;;;;;;;;;6149897;23;20018;-83
2022/06/11 01:21:15;;;;;;;19.67;7.65;;;;;;;;;;6147933;23;20025;-82
2022/06/11 01:23:55;;;;;;;12.50;7.32;;;;;;;;;;6145039;23;20014;-81
2022/06/11 01:26:41;;;;;;;11.77;6.95;;;;;;;;;;6173219;23;20751;-83
2022/06/11 01:29:19;;;;;;;10.63;6.13;;;;;;;;;;6150476;23;20033;-82
2022/06/11 01:32:01;;;;;;;17.45;7.60;;;;;;;;;;6150548;23;20026;-81
2022/06/11 01:34:33;;;;;;;9.88;6.68;;;;;;;;;;6148978;23;20046;-83
2022/06/11 01:37:12;;;;;;;13.68;6.82;;;;;;;;;;6148581;23;20018;-82
2022/06/11 01:39:46;;;;;;;12.93;6.80;;;;;;;;;;6148698;23;20022;-82
2022/06/11 01:42:20;;;;;;;11.35;5.57;;;;;;;;;;6150657;23;20006;-82
2022/06/11 01:44:58;;;;;;;9.52;5.63;;;;;;;;;;6149678;23;20022;-82
2022/06/11 01:47:26;;;;;;;12.93;5.07;;;;;;;;;;6177352;23;20022;-83
2022/06/11 01:49:56;;;;;;;12.60;5.10;;;;;;;;;;6151242;23;20018;-81
2022/06/11 01:52:24;;;;;;;11.95;5.00;;;;;;;;;;6151569;23;20025;-82
2022/06/11 01:55:00;;;;;;;10.50;4.47;;;;;;;;;;6150232;23;20793;-83
2022/06/11 01:57:49;;;;;;;11.88;5.15;;;;;;;;;;6153097;23;20014;-84
2022/06/11 02:00:27;;;;;;;9.45;4.93;;;;;;;;;;6151365;23;20016;-81
2022/06/11 02:03:09;;;;;;;9.10;4.82;;;;;;;;;;6146587;23;20033;-81
2022/06/11 02:05:37;;;;;;;;;;;;;;;;;;6148874;23;20086;-82
2022/06/11 02:08:14;;;;;;;14.85;4.40;;;;;;;;;;6192973;23;43349;-82
2022/06/11 02:10:48;;;;;;;8.15;4.43;;;;;;;;;;6144641;23;20846;-82
2022/06/11 02:13:18;;;;;;;7.15;4.20;;;;;;;;;;6146105;23;20010;-82
2022/06/11 02:15:58;;;;;;;11.50;4.57;;;;;;;;;;6147465;23;20055;-82
2022/06/11 02:18:26;;;;;;;9.63;4.70;;;;;;;;;;6146872;23;20038;-82
2022/06/11 02:21:00;;;;;;;10.27;4.28;;;;;;;;;;6169438;23;20024;-82
2022/06/11 02:23:32;;;;;;;12.98;4.38;;;;;;;;;;6146071;23;20747;-82
2022/06/11 02:26:03;;;;;;;7.55;4.50;;;;;;;;;;6144951;23;20032;-83
2022/06/11 02:28:32;;;;;;;9.43;4.47;;;;;;;;;;6145678;23;20033;-82
2022/06/11 02:31:02;;;;;;;10.95;5.40;;;;;;;;;;6143989;23;20025;-82
2022/06/11 02:33:31;;;;;;;11.30;4.80;;;;;;;;;;6140910;23;20337;-82
2022/06/11 02:36:01;;;;;;;9.45;4.25;;;;;;;;;;6142341;23;20014;-82
2022/06/11 02:38:29;;;;;;;11.20;4.55;;;;;;;;;;6145052;23;20293;-82
2022/06/11 02:40:59;;;;;;;8.07;4.32;;;;;;;;;;6144723;23;20022;-82
2022/06/11 02:43:27;;;;;;;9.85;4.15;;;;;;;;;;6144453;23;20062;-83
2022/06/11 02:45:54;;;;;;;12.95;4.63;;;;;;;;;;6143919;23;20077;-82
2022/06/11 02:48:22;;;;;;;9.25;3.90;;;;;;;;;;6169542;23;20038;-81
2022/06/11 02:50:53;;;;;;;9.90;4.65;;;;;;;;;;6144183;23;20022;-82
2022/06/11 02:53:20;;;;;;;10.10;4.05;;;;;;;;;;6144253;23;20082;-82
2022/06/11 02:55:50;;;;;;;11.13;4.10;;;;;;;;;;6142915;23;20014;-82
2022/06/11 02:58:20;;;;;;;10.82;3.28;;;;;;;;;;6142636;23;20431;-83
2022/06/11 03:00:50;;;;;;;9.02;3.72;;;;;;;;;;6144130;23;20019;-82
2022/06/11 03:03:22;;;;;;;8.60;3.70;;;;;;;;;;6143161;23;20037;-82
2022/06/11 03:05:49;;;;;;;14.65;3.88;;;;;;;;;;6142827;23;20024;-82
2022/06/11 03:08:16;;;;;;;9.45;3.30;;;;;;;;;;6142478;23;20016;-82
2022/06/11 03:10:44;;;;;;;11.77;3.47;;;;;;;;;;6141188;23;20029;-82
2022/06/11 03:13:11;;;;;;;12.93;3.47;;;;;;;;;;6142971;23;20026;-83
2022/06/11 03:15:40;;;;;;;9.40;3.50;;;;;;;;;;6141923;23;20111;-81
2022/06/11 03:18:12;;;;;;;12.02;3.45;;;;;;;;;;6142304;23;20022;-83
2022/06/11 03:20:39;;;;;;;12.88;2.90;;;;;;;;;;6142581;23;20028;-83
2022/06/11 03:23:07;;;;;;;9.68;3.20;;;;;;;;;;6141213;23;20021;-82
2022/06/11 03:25:36;;;;;;;12.40;3.15;;;;;;;;;;6139744;23;20108;-82
2022/06/11 03:28:11;;;;;;;7.78;2.70;;;;;;;;;;6141107;23;20025;-82
2022/06/11 03:30:38;;;;;;;12.30;3.15;;;;;;;;;;6140491;23;20017;-82
2022/06/11 03:33:09;;;;;;;14.23;3.08;;;;;;;;;;6140665;23;20014;-82
2022/06/11 03:35:37;;;;;;;15.75;2.78;;;;;;;;;;6139698;23;20022;-81
2022/06/11 03:38:07;;;;;;;7.93;2.88;;;;;;;;;;6139024;23;20018;-82
2022/06/11 03:40:35;;;;;;;9.30;2.50;;;;;;;;;;6139002;23;20096;-81
2022/06/11 03:43:02;;;;;;;8.90;2.88;;;;;;;;;;6139807;23;20026;-82
2022/06/11 03:45:30;;;;;;;11.40;2.92;;;;;;;;;;6166118;23;20026;-82
2022/06/11 03:47:57;;;;;;;11.38;2.83;;;;;;;;;;6138341;23;20069;-82
2022/06/11 03:50:33;;;;;;;6.50;2.38;;;;;;;;;;6139188;23;20018;-82
2022/06/11 03:53:00;;;;;;;;;;;;;;;;;;6139828;23;20846;-81
2022/06/11 03:55:27;;;;;;;7.18;2.55;;;;;;;;;;6187503;23;43479;-82
2022/06/11 03:57:56;;;;;;;11.63;2.65;;;;;;;;;;6140033;23;20013;-82
2022/06/11 04:03:12;;;;;;;11.50;2.42;;;;;;;;;;6165307;23;20030;-82
2022/06/11 04:05:40;;;;;;;11.07;2.40;;;;;;;;;;6139399;23;20041;-82
2022/06/11 04:08:08;;;;;;;13.32;2.90;;;;;;;;;;6140423;23;20021;-82
2022/06/11 04:10:38;;;;;;;9.88;2.92;;;;;;;;;;6140268;23;20081;-81
2022/06/11 04:13:08;;;;;;;20.65;3.30;;;;;;;;;;6140837;23;20032;-83
2022/06/11 04:15:37;;;;;;;13.40;2.80;;;;;;;;;;6141265;23;20018;-82
2022/06/11 04:18:07;;;;;;;15.20;2.97;;;;;;;;;;6140122;23;20025;-82
2022/06/11 04:20:35;;;;;;;8.75;2.40;;;;;;;;;;6167100;23;20089;-82
2022/06/11 04:23:02;;;;;;;13.23;2.40;;;;;;;;;;6141285;23;20034;-82
2022/06/11 04:25:30;;;;;;;11.95;2.22;;;;;;;;;;6140484;23;20045;-82
2022/06/11 04:27:57;;;;;;;14.15;2.88;;;;;;;;;;6139441;23;20022;-82
2022/06/11 04:30:25;;;;;;;10.15;2.60;;;;;;;;;;6166164;23;20906;-81
2022/06/11 04:32:52;;;;;;;10.13;2.28;;;;;;;;;;6140685;23;20010;-82
2022/06/11 04:35:22;;;;;;;9.10;2.28;;;;;;;;;;6141059;23;20014;-82
2022/06/11 04:37:49;;;;;;;17.42;3.20;;;;;;;;;;6141275;23;20018;-82
2022/06/11 04:40:18;;;;;;;12.07;3.15;;;;;;;;;;6140405;23;20045;-82
2022/06/11 04:42:46;;;;;;;13.43;3.13;;;;;;;;;;6141494;23;20018;-82
2022/06/11 04:45:13;;;;;;;14.35;2.85;;;;;;;;;;6140675;23;20018;-82
2022/06/11 04:47:41;;;;;;;16.73;3.47;;;;;;;;;;6140239;23;20025;-82
2022/06/11 04:50:09;;;;;;;17.17;3.03;;;;;;;;;;6165819;23;20056;-81
2022/06/11 04:52:39;;;;;;;15.02;2.60;;;;;;;;;;6139364;23;20032;-82
2022/06/11 04:55:06;;;;;;;15.82;3.08;;;;;;;;;;6139186;23;20416;-82
2022/06/11 04:57:33;;;;;;;20.50;3.35;;;;;;;;;;6138486;23;20053;-83
2022/06/11 05:00:04;;;;;;;9.68;2.50;;;;;;;;;;6164574;23;20932;-82
2022/06/11 05:02:31;;;;;;;13.68;2.63;;;;;;;;;;6138919;23;20786;-82
2022/06/11 05:04:59;;;;;;;17.13;3.58;;;;;;;;;;6139367;23;20101;-82
2022/06/11 05:07:26;;;;;;;14.73;3.17;;;;;;;;;;6138586;23;20018;-82
2022/06/11 05:09:54;;;;;;;19.42;3.30;;;;;;;;;;6140060;23;20073;-82
2022/06/11 05:12:21;;;;;;;20.10;3.42;;;;;;;;;;6139829;23;20022;-82
2022/06/11 05:14:51;;;;;;;16.38;3.40;;;;;;;;;;6188998;23;20109;-81
2022/06/11 05:17:18;;;;;;;18.45;3.10;;;;;;;;;;6139929;23;20077;-83
2022/06/11 05:19:48;;;;;;;18.45;3.42;;;;;;;;;;6141447;23;20014;-83
2022/06/11 05:22:15;;;;;;;19.30;4.13;;;;;;;;;;6143246;23;20110;-81
2022/06/11 05:24:42;;;;;;;18.15;3.60;;;;;;;;;;6166309;23;20022;-82
2022/06/11 05:27:13;;;;;;;14.75;3.40;;;;;;;;;;6139306;23;20828;-83
2022/06/11 05:29:52;;;;;;;21.35;4.00;;;;;;;;;;6139707;23;20022;-81
2022/06/11 05:32:20;;;;;;;19.30;3.28;;;;;;;;;;6140168;23;20026;-81
2022/06/11 05:34:48;;;;;;;20.88;3.53;;;;;;;;;;6141602;23;20014;-82
2022/06/11 05:37:16;;;;;;;17.65;3.42;;;;;;;;;;6141599;23;20123;-82
2022/06/11 05:39:44;;;;;;;26.10;4.07;;;;;;;;;;6140688;23;20785;-81
2022/06/11 05:42:11;;;;;;;18.85;3.58;;;;;;;;;;6142661;23;20075;-82
2022/06/11 05:44:39;;;;;;;19.88;3.50;;;;;;;;;;6143536;23;20021;-82
2022/06/11 05:47:07;;;;;;;21.33;3.80;;;;;;;;;;6142842;23;20933;-84
2022/06/11 05:49:37;;;;;;;23.17;3.97;;;;;;;;;;6143356;23;20021;-82
2022/06/11 05:52:07;;;;;;;22.58;3.70;;;;;;;;;;6143789;23;20022;-81
2022/06/11 05:54:36;;;;;;;23.33;4.28;;;;;;;;;;6172177;23;20018;-82
2022/06/11 05:57:06;;;;;;;16.65;3.55;;;;;;;;;;6133657;23;20014;-83
2022/06/11 05:59:39;;;;;;;24.83;4.30;;;;;;;;;;6143390;23;20044;-82
2022/06/11 06:02:10;;;;;;;27.27;3.80;;;;;;;;;;6142374;23;20026;-82
2022/06/11 06:04:37;;;;;;;24.40;3.88;;;;;;;;;;6141609;23;20013;-82
2022/06/11 06:07:06;;;;;;;25.23;4.28;;;;;;;;;;6142677;23;20022;-82
2022/06/11 06:09:33;;;;;;;28.02;5.22;;;;;;;;;;6141744;23;20010;-82
2022/06/11 06:12:01;;;;;;;28.05;5.05;;;;;;;;;;6141670;23;20010;-82
2022/06/11 06:14:30;;;;;;;16.05;3.13;;;;;;;;;;6168173;23;20081;-82
2022/06/11 06:16:58;;;;;;;19.48;4.05;;;;;;;;;;6142692;23;20700;-82
2022/06/11 06:19:46;;;;;;;22.88;4.00;;;;;;;;;;6147979;23;20090;-82
2022/06/11 06:22:16;;;;;;;26.50;4.40;;;;;;;;;;6144474;23;20003;-83
2022/06/11 06:24:47;;;;;;;19.30;4.07;;;;;;;;;;6143110;23;20081;-83
2022/06/11 06:27:15;;;;;;;19.43;3.70;;;;;;;;;;6142672;23;20018;-84
2022/06/11 06:29:45;;;;;;;20.45;3.92;;;;;;;;;;6141703;23;20802;-82
2022/06/11 06:32:13;;;;;;;24.45;4.80;;;;;;;;;;6144281;23;20010;-83
2022/06/11 06:34:40;;;;;;;21.75;3.92;;;;;;;;;;6144615;23;20018;-83
2022/06/11 06:37:08;;;;;;;26.48;4.28;;;;;;;;;;6143019;23;20017;-83
2022/06/11 06:39:35;;;;;;;23.77;4.00;;;;;;;;;;6145108;23;20029;-82
2022/06/11 06:42:06;;;;;;;22.55;4.65;;;;;;;;;;6144813;23;20018;-84
2022/06/11 06:44:34;;;;;;;18.20;4.15;;;;;;;;;;6145395;23;20024;-83
2022/06/11 06:47:01;;;;;;;29.58;5.07;;;;;;;;;;6145217;23;20106;-83
2022/06/11 06:49:31;;;;;;;18.63;4.10;;;;;;;;;;6141552;23;20021;-83
2022/06/11 06:52:00;;;;;;;24.08;4.68;;;;;;;;;;6139708;23;20022;-83
2022/06/11 06:54:27;;;;;;;24.08;4.63;;;;;;;;;;6140147;23;20022;-82
2022/06/11 06:56:54;;;;;;;24.45;3.58;;;;;;;;;;6140568;23;20018;-83
2022/06/11 06:59:22;;;;;;;22.80;4.35;;;;;;;;;;6170815;23;20026;-83
2022/06/11 07:01:50;;;;;;;23.55;4.35;;;;;;;;;;6145710;23;20834;-83
2022/06/11 07:04:17;;;;;;;25.25;4.47;;;;;;;;;;6144491;23;20727;-84
2022/06/11 07:06:53;;;;;;;28.13;4.38;;;;;;;;;;6146316;23;20022;-83
2022/06/11 07:09:21;;;;;;;22.50;4.47;;;;;;;;;;6140461;23;20018;-83
2022/06/11 07:11:49;;;;;;;20.10;4.40;;;;;;;;;;6148234;23;20017;-83
2022/06/11 07:14:16;;;;;;;20.95;3.90;;;;;;;;;;6147351;23;20766;-83
2022/06/11 07:16:46;;;;;;;23.90;4.15;;;;;;;;;;6144444;23;20679;-83
2022/06/11 07:19:22;;;;;;;27.70;4.22;;;;;;;;;;6142377;23;20829;-83
2022/06/11 07:21:52;;;;;;;19.40;4.13;;;;;;;;;;6141360;23;20022;-84
2022/06/11 07:24:21;;;;;;;18.98;4.28;;;;;;;;;;6138835;23;20022;-83
2022/06/11 07:26:59;;;;;;;28.38;4.28;;;;;;;;;;6140603;23;20018;-83
2022/06/11 07:29:29;;;;;;;19.13;3.72;;;;;;;;;;6142790;23;20053;-83
2022/06/11 07:32:01;;;;;;;20.30;4.03;;;;;;;;;;6143956;23;20021;-83
2022/06/11 07:34:28;;;;;;;18.70;3.30;;;;;;;;;;6145335;23;20018;-83
2022/06/11 07:37:00;;;;;;;18.13;3.40;;;;;;;;;;6140253;23;20070;-83
2022/06/11 07:39:27;;;;;;;17.50;2.92;;;;;;;;;;6142131;23;20815;-83
2022/06/11 07:41:56;;;;;;;21.42;3.28;;;;;;;;;;6143861;23;20010;-83
2022/06/11 07:44:23;;;;;;;18.45;3.60;;;;;;;;;;6141271;23;20101;-84
2022/06/11 07:46:50;;;;;;;15.50;3.25;;;;;;;;;;6137409;23;20423;-84
2022/06/11 07:49:19;;;;;;;20.48;3.50;;;;;;;;;;6135850;23;20057;-84
2022/06/11 07:51:47;;;;;;;17.30;3.38;;;;;;;;;;6161003;23;20823;-83
2022/06/11 07:54:14;;;;;;;15.93;3.15;;;;;;;;;;6134732;23;20033;-83
2022/06/11 07:56:42;;;;;;;15.75;3.10;;;;;;;;;;6135744;23;20014;-83
2022/06/11 07:59:09;;;;;;;13.98;3.15;;;;;;;;;;6135687;23;20078;-83
2022/06/11 08:01:37;;;;;;;22.55;3.30;;;;;;;;;;6135286;23;20022;-83
2022/06/11 08:04:04;;;;;;;19.33;3.80;;;;;;;;;;6135143;23;20045;-83
2022/06/11 08:06:31;;;;;;;17.58;3.72;;;;;;;;;;6135378;23;20057;-84
2022/06/11 08:08:59;;;;;;;21.48;3.97;;;;;;;;;;6135144;23;20021;-83
2022/06/11 08:11:26;;;;;;;15.32;3.70;;;;;;;;;;6135317;23;20073;-83
2022/06/11 08:13:55;;;;;;;19.02;3.20;;;;;;;;;;6135481;23;20021;-83
2022/06/11 08:16:23;;;;;;;16.90;3.42;;;;;;;;;;6162963;23;20026;-83
2022/06/11 08:18:50;;;;;;;16.60;3.80;;;;;;;;;;6136913;23;20093;-83
2022/06/11 08:21:18;;;;;;;15.65;3.10;;;;;;;;;;6135866;23;20097;-83
2022/06/11 08:23:45;;;;;;;16.40;3.40;;;;;;;;;;6135024;23;20028;-83
2022/06/11 08:26:12;;;;;;;20.60;3.92;;;;;;;;;;6134750;23;20026;-83
2022/06/11 08:28:40;;;;;;;17.80;2.85;;;;;;;;;;6134793;23;20018;-83
2022/06/11 08:31:07;;;;;;;14.93;3.38;;;;;;;;;;6160268;23;20053;-83
2022/06/11 08:33:34;;;;;;;19.92;4.10;;;;;;;;;;6135778;23;20097;-83
2022/06/11 08:36:06;;;;;;;20.10;3.35;;;;;;;;;;6135065;23;20112;-82
2022/06/11 08:38:33;;;;;;;19.13;3.55;;;;;;;;;;6133221;23;20412;-83
2022/06/11 08:41:00;;;;;;;14.45;3.08;;;;;;;;;;6162304;23;20018;-83
2022/06/11 08:43:27;;;;;;;16.02;3.60;;;;;;;;;;6163559;23;20049;-83
2022/06/11 08:46:02;;;;;;;16.35;3.42;;;;;;;;;;6163412;23;20092;-83
2022/06/11 08:48:35;;;;;;;17.15;3.78;;;;;;;;;;6160284;23;20060;-83
2022/06/11 08:51:07;;;;;;;20.57;3.30;;;;;;;;;;6136099;23;20072;-84
2022/06/11 08:53:36;;;;;;;16.48;3.65;;;;;;;;;;6138870;23;20290;-83
2022/06/11 08:56:03;;;;;;;16.83;3.30;;;;;;;;;;6142100;23;20022;-85
2022/06/11 08:58:55;;;;;;;13.77;3.15;;;;;;;;;;6135737;23;20018;-85
2022/06/11 09:01:46;;;;;;;15.82;3.53;;;;;;;;;;6135407;23;20022;-84
2022/06/11 09:04:32;;;;;;;15.48;3.10;;;;;;;;;;6141875;23;20096;-84
2022/06/11 09:07:07;;;;;;;23.25;3.72;;;;;;;;;;6136551;23;20787;-84
2022/06/11 09:09:49;;;;;;;19.02;3.45;;;;;;;;;;6143510;23;20033;-82
2022/06/11 09:12:27;;;;;;;21.60;3.67;;;;;;;;;;6163277;23;20021;-83
2022/06/11 09:15:01;;;;;;;18.27;3.03;;;;;;;;;;6163721;23;20826;-83
2022/06/11 09:17:35;;;;;;;17.98;3.80;;;;;;;;;;6186340;23;20730;-84
2022/06/11 09:20:09;;;;;;;17.05;3.17;;;;;;;;;;6162076;23;20033;-82
2022/06/11 09:22:55;;;;;;;17.52;3.42;;;;;;;;;;6136083;23;20057;-83
2022/06/11 09:25:22;;;;;;;16.10;3.38;;;;;;;;;;6135964;23;20546;-82
2022/06/11 09:27:56;;;;;;;13.43;3.20;;;;;;;;;;6134170;23;20018;-83
2022/06/11 09:30:28;;;;;;;15.85;3.63;;;;;;;;;;6135851;23;20483;-83
2022/06/11 09:33:01;;;;;;;15.07;3.22;;;;;;;;;;6135702;23;20058;-83
2022/06/11 09:35:35;;;;;;;24.92;3.83;;;;;;;;;;6137463;23;20155;-83
2022/06/11 09:38:07;;;;;;;18.90;3.10;;;;;;;;;;6136305;23;20022;-83
2022/06/11 09:40:40;;;;;;;16.08;3.72;;;;;;;;;;6162076;23;20022;-84
2022/06/11 09:43:26;;;;;;;20.15;4.40;;;;;;;;;;6184220;23;20746;-83
2022/06/11 09:45:57;;;;;;;14.95;3.25;;;;;;;;;;6135657;23;20029;-83
2022/06/11 09:48:38;;;;;;;18.73;3.88;;;;;;;;;;6136923;23;20068;-83
2022/06/11 09:51:12;;;;;;;22.83;4.28;;;;;;;;;;6164679;23;20767;-82
2022/06/11 09:53:44;;;;;;;19.20;4.10;;;;;;;;;;6160793;23;20093;-85
2022/06/11 09:56:12;;;;;;;17.80;4.05;;;;;;;;;;6137398;23;20014;-83
2022/06/11 09:58:47;;;;;;;16.60;3.50;;;;;;;;;;6139069;23;20022;-83
2022/06/11 10:01:35;;;;;;;17.25;3.78;;;;;;;;;;6139244;23;20105;-82
2022/06/11 10:04:09;;;;;;;19.63;3.47;;;;;;;;;;6137050;23;20010;-84
2022/06/11 10:06:41;;;;;;;17.48;3.53;;;;;;;;;;6139555;23;20029;-83
2022/06/11 10:09:24;;;;;;;25.63;3.97;;;;;;;;;;6140045;23;20022;-83
2022/06/11 10:11:57;;;;;;;18.77;3.78;;;;;;;;;;6137483;23;20020;-84
2022/06/11 10:14:32;;;;;;;18.50;3.65;;;;;;;;;;6137711;23;20527;-82
2022/06/11 10:17:10;;;;;;;18.77;4.28;;;;;;;;;;6138187;23;20779;-83
2022/06/11 10:19:44;;;;;;;22.52;4.07;;;;;;;;;;6138092;23;20098;-83
2022/06/11 10:22:25;;;;;;;16.27;3.60;;;;;;;;;;6140107;23;20030;-83
2022/06/11 10:25:11;;;;;;;17.17;4.03;;;;;;;;;;6165720;23;20049;-82
2022/06/11 10:27:43;;;;;;;20.02;3.70;;;;;;;;;;6139182;23;20022;-83
2022/06/11 10:30:20;;;;;;;13.70;3.60;;;;;;;;;;6164334;23;20014;-82
2022/06/11 10:32:49;;;;;;;21.75;4.00;;;;;;;;;;6141131;23;20033;-83
2022/06/11 10:35:28;;;;;;;22.15;3.90;;;;;;;;;;6169244;23;20022;-83
2022/06/11 10:38:15;;;;;;;20.30;3.85;;;;;;;;;;6141601;23;20018;-84
2022/06/11 10:40:46;;;;;;;17.77;3.97;;;;;;;;;;6165966;23;20022;-83
2022/06/11 10:43:39;;;;;;;14.70;3.67;;;;;;;;;;6140366;23;20078;-83
2022/06/11 10:46:10;;;;;;;17.73;3.45;;;;;;;;;;6139592;23;20010;-83
2022/06/11 10:48:41;;;;;;;18.17;3.90;;;;;;;;;;6138904;23;20033;-83
2022/06/11 10:51:33;;;;;;;17.50;3.53;;;;;;;;;;6140228;23;20018;-84
2022/06/11 10:54:22;;;;;;;15.80;3.70;;;;;;;;;;6142601;23;20029;-84
2022/06/11 10:57:01;;;;;;;15.80;3.38;;;;;;;;;;6181305;23;20018;-83
2022/06/11 10:59:54;;;;;;;14.88;3.50;;;;;;;;;;6158567;23;20017;-86
2022/06/11 11:02:51;;;;;;;10.60;2.67;;;;;;;;;;6180852;23;20077;-85
2022/06/11 11:05:20;;;;;;;16.42;3.47;;;;;;;;;;6169792;23;20100;-86
2022/06/11 11:08:05;;;;;;;17.23;3.90;;;;;;;;;;6146724;23;20015;-84
2022/06/11 11:10:36;;;;;;;18.02;3.65;;;;;;;;;;6156511;23;20009;-85
2022/06/11 11:13:20;;;;;;;17.83;3.88;;;;;;;;;;6151709;23;20029;-85
2022/06/11 11:16:00;;;;;;;18.67;3.70;;;;;;;;;;6189357;23;20018;-83
2022/06/11 11:18:34;;;;;;;19.60;3.80;;;;;;;;;;6138937;23;20494;-85
2022/06/11 11:21:03;;;;;;;19.20;3.78;;;;;;;;;;6144066;23;20017;-85
2022/06/11 11:23:38;;;;;;;20.55;4.25;;;;;;;;;;6156111;23;20018;-82
2022/06/11 11:26:12;;;;;;;14.77;3.22;;;;;;;;;;6180673;23;20018;-85
2022/06/11 11:28:54;;;;;;;16.85;3.75;;;;;;;;;;6156536;23;20029;-84
2022/06/11 11:31:26;;;;;;;19.50;3.45;;;;;;;;;;6159208;23;20069;-85
2022/06/11 11:34:03;;;;;;;17.40;3.60;;;;;;;;;;6160607;23;20009;-84
2022/06/11 11:36:34;;;;;;;21.85;3.85;;;;;;;;;;6160835;23;20017;-85
2022/06/11 11:39:03;;;;;;;;;;;;;;;;;;6160972;23;20030;-84
2022/06/11 11:41:42;;;;;;;17.95;3.75;;;;;;;;;;6207868;23;45704;-84
2022/06/11 11:44:22;;;;;;;15.10;3.30;;;;;;;;;;6160070;23;20010;-84
2022/06/11 11:47:00;;;;;;;16.35;3.80;;;;;;;;;;6160224;23;20018;-83
2022/06/11 11:49:34;;;;;;;16.55;3.55;;;;;;;;;;6160706;23;20022;-83
2022/06/11 11:52:09;;;;;;;17.60;3.30;;;;;;;;;;6154861;23;20074;-84
2022/06/11 11:55:13;;;;;;;22.08;3.80;;;;;;;;;;6162113;23;20006;-84
2022/06/11 11:57:50;;;;;;;19.63;4.07;;;;;;;;;;6159219;23;20070;-83
2022/06/11 12:00:26;;;;;;;25.80;4.30;;;;;;;;;;6160381;23;20025;-84
2022/06/11 12:02:57;;;;;;;15.05;3.20;;;;;;;;;;6159200;23;20783;-84
2022/06/11 12:05:33;;;;;;;19.98;3.30;;;;;;;;;;6160578;23;20010;-84
2022/06/11 12:08:11;;;;;;;16.05;3.45;;;;;;;;;;6160858;23;20077;-84
2022/06/11 12:11:01;;;;;;;16.70;3.05;;;;;;;;;;6161202;23;20087;-84
2022/06/11 12:13:43;;;;;;;18.13;3.35;;;;;;;;;;6160923;23;20005;-84
2022/06/11 12:16:30;;;;;;;16.38;3.08;;;;;;;;;;6161506;23;20017;-85
2022/06/11 12:19:20;;;;;;;14.57;3.17;;;;;;;;;;6159612;23;20050;-84
2022/06/11 12:22:01;;;;;;;18.27;3.65;;;;;;;;;;6180718;23;20113;-84
2022/06/11 12:24:42;;;;;;;15.75;3.17;;;;;;;;;;6190935;23;20021;-84
2022/06/11 12:27:29;;;;;;;14.63;3.13;;;;;;;;;;6189872;23;19998;-85
2022/06/11 12:30:26;;;;;;;16.95;3.50;;;;;;;;;;6190684;23;20033;-84
2022/06/11 12:32:57;;;;;;;13.98;3.55;;;;;;;;;;6189755;23;19990;-84
2022/06/11 12:35:31;;;;;;;16.83;3.13;;;;;;;;;;6189009;23;20013;-84
2022/06/11 12:38:05;;;;;;;18.15;3.35;;;;;;;;;;6189300;23;20017;-83
2022/06/11 12:40:40;;;;;;;15.73;3.22;;;;;;;;;;6187955;23;20005;-84
2022/06/11 12:43:16;;;;;;;15.13;3.20;;;;;;;;;;6189554;23;20018;-83
2022/06/11 12:45:44;;;;;;;13.93;2.95;;;;;;;;;;6188020;23;20005;-85
2022/06/11 12:48:42;;;;;;;16.25;2.88;;;;;;;;;;6189189;23;20037;-84
2022/06/11 12:51:29;;;;;;;17.48;3.88;;;;;;;;;;6189685;23;20013;-83
2022/06/11 12:53:58;;;;;;;13.20;3.15;;;;;;;;;;6189002;23;20026;-84
2022/06/11 12:56:44;;;;;;;19.30;3.25;;;;;;;;;;6190023;23;20394;-85
2022/06/11 12:59:36;;;;;;;14.15;3.33;;;;;;;;;;6189108;23;19997;-85
2022/06/11 13:02:29;;;;;;;14.18;3.00;;;;;;;;;;6188906;23;20002;-85
2022/06/11 13:05:20;;;;;;;14.75;3.03;;;;;;;;;;6191042;23;20002;-84
2022/06/11 13:07:54;;;;;;;16.77;3.42;;;;;;;;;;6190645;23;20046;-84
2022/06/11 13:10:43;;;;;;;16.45;3.47;;;;;;;;;;6191295;23;20085;-85
2022/06/11 13:13:31;;;;;;;9.98;2.58;;;;;;;;;;6187472;23;20024;-84
2022/06/11 13:16:08;;;;;;;8.07;2.15;;;;;;;;;;6187397;23;20089;-84
2022/06/11 13:18:55;;;;;;;10.23;2.38;;;;;;;;;;6189583;23;20062;-83
2022/06/11 13:21:30;;;;;;;9.55;2.38;;;;;;;;;;6188515;23;20013;-83
2022/06/11 13:24:16;;;;;;;11.07;2.53;;;;;;;;;;6189438;23;20006;-84
2022/06/11 13:27:11;;;;;;;12.40;2.70;;;;;;;;;;6190543;23;20033;-83
2022/06/11 13:29:56;;;;;;;15.65;2.70;;;;;;;;;;6190058;23;20001;-85
2022/06/11 13:32:30;;;;;;;9.57;2.50;;;;;;;;;;6190308;23;20008;-85
2022/06/11 13:35:09;;;;;;;12.10;2.85;;;;;;;;;;6189918;23;20009;-84
2022/06/11 13:37:56;;;;;;;11.20;2.17;;;;;;;;;;6190599;23;19997;-85
2022/06/11 13:40:37;;;;;;;8.55;2.30;;;;;;;;;;6191755;23;20014;-83
2022/06/11 13:43:11;;;;;;;9.88;2.10;;;;;;;;;;6188309;23;20021;-84
2022/06/11 13:45:42;;;;;;;11.15;2.10;;;;;;;;;;6189213;23;20018;-84
2022/06/11 13:48:14;;;;;;;10.02;2.75;;;;;;;;;;6188999;23;20045;-84
2022/06/11 13:50:47;;;;;;;13.32;2.67;;;;;;;;;;6190160;23;20024;-86
2022/06/11 13:56:18;;;;;;;11.63;2.50;;;;;;;;;;6216741;23;20044;-85
2022/06/11 13:59:09;;;;;;;12.45;2.72;;;;;;;;;;6192066;23;20040;-84
2022/06/11 14:01:42;;;;;;;13.60;2.40;;;;;;;;;;6190397;23;20017;-85
2022/06/11 14:04:29;;;;;;;11.70;2.90;;;;;;;;;;6189855;23;20024;-85
2022/06/11 14:07:05;;;;;;;12.52;2.42;;;;;;;;;;6180761;23;20479;-84
2022/06/11 14:12:40;;;;;;;16.70;2.85;;;;;;;;;;6194308;23;20049;-84
2022/06/11 14:15:16;;;;;;;16.30;3.00;;;;;;;;;;6175406;23;20017;-84
2022/06/11 14:17:47;;;;;;;11.85;2.50;;;;;;;;;;6172580;23;20025;-84
2022/06/11 14:20:16;;;;;;;;;;;;;;;;;;6196324;23;20009;-83
2022/06/11 14:22:49;;;;;;;16.00;3.10;;;;;;;;;;6219483;23;42040;-85
2022/06/11 14:25:35;;;;;;;13.02;2.72;;;;;;;;;;6168948;23;20021;-85
2022/06/11 14:28:16;;;;;;;13.60;2.90;;;;;;;;;;6196951;23;20830;-84
2022/06/11 14:30:50;;;;;;;17.00;2.65;;;;;;;;;;6169436;23;20033;-84
2022/06/11 14:33:18;;;;;;;13.80;3.03;;;;;;;;;;6171045;23;20021;-84
2022/06/11 14:35:50;;;;;;;14.15;2.25;;;;;;;;;;6171029;23;20037;-87
2022/06/11 14:38:29;;;;;;;13.05;2.75;;;;;;;;;;6171047;23;20833;-84
2022/06/11 14:41:34;;;;;;;12.38;2.78;;;;;;;;;;6172980;23;20025;-85
2022/06/11 14:44:20;;;;;;;12.30;2.97;;;;;;;;;;6197473;23;20839;-85
2022/06/11 14:47:10;;;;;;;12.73;2.80;;;;;;;;;;6171877;23;20022;-85
2022/06/11 14:49:50;;;;;;;11.20;2.33;;;;;;;;;;6175839;23;20021;-85
2022/06/11 14:53:00;;;;;;;10.55;2.42;;;;;;;;;;6169179;23;20017;-86
2022/06/11 14:55:47;;;;;;;7.18;2.13;;;;;;;;;;6167253;23;20026;-86
2022/06/11 14:58:38;;;;;;;8.55;2.08;;;;;;;;;;6175485;23;20044;-86
2022/06/11 15:01:18;;;;;;;10.07;2.80;;;;;;;;;;6153204;23;20031;-86
2022/06/11 15:04:05;;;;;;;11.13;2.65;;;;;;;;;;6181551;23;20025;-85
2022/06/11 15:06:50;;;;;;;10.15;2.13;;;;;;;;;;6187017;23;20036;-86
2022/06/11 15:09:19;;;;;;;;;;;;;;;;;;6192388;23;19998;-86
2022/06/11 15:11:47;;;;;;;9.00;2.10;;;;;;;;;;6240503;22;44208;-86
2022/06/11 15:14:22;;;;;;;7.50;2.40;;;;;;;;;;6191588;23;20002;-86
2022/06/11 15:16:55;;;;;;;12.35;2.03;;;;;;;;;;6189095;23;20006;-85
2022/06/11 15:19:36;;;;;;;8.38;2.25;;;;;;;;;;6168429;23;20028;-86